sensor_id;sensor_type;location;lat;lon;timestamp;pressure;altitude;pressure_sealevel;temperature;humidity
61014;BME280;46899;47.542;19.082;2023-06-22T00:01:22;100625.44;;;20.56;100.00
61014;BME280;46899;47.542;19.082;2023-06-22T00:04:25;100621.00;;;20.57;100.00
61014;BME280;46899;47.542;19.082;2023-06-22T00:07:28;100621.47;;;20.51;100.00
61014;BME280;46899;47.542;19.082;2023-06-22T00:10:31;100622.41;;;20.50;100.00
61014;BME280;46899;47.542;19.082;2023-06-22T00:13:33;100634.16;;;20.45;100.00
61014;BME280;46899;47.542;19.082;2023-06-22T00:16:35;100641.34;;;20.43;100.00
61014;BME280;46899;47.542;19.082;2023-06-22T00:19:38;100642.41;;;20.41;100.00
61014;BME280;46899;47.542;19.082;2023-06-22T00:22:42;100637.13;;;20.54;100.00
61014;BME280;46899;47.542;19.082;2023-06-22T00:25:45;100637.75;;;20.44;100.00
61014;BME280;46899;47.542;19.082;2023-06-22T00:28:47;100631.19;;;20.37;100.00
61014;BME280;46899;47.542;19.082;2023-06-22T00:31:50;100630.88;;;20.42;100.00
61014;BME280;46899;47.542;19.082;2023-06-22T00:34:52;100634.81;;;20.36;100.00
61014;BME280;46899;47.542;19.082;2023-06-22T00:37:58;100631.31;;;20.36;100.00
61014;BME280;46899;47.542;19.082;2023-06-22T00:41:05;100614.09;;;20.30;100.00
61014;BME280;46899;47.542;19.082;2023-06-22T00:44:08;100615.47;;;20.23;100.00
61014;BME280;46899;47.542;19.082;2023-06-22T00:47:14;100628.81;;;20.22;100.00
61014;BME280;46899;47.542;19.082;2023-06-22T00:50:18;100630.56;;;20.21;100.00
61014;BME280;46899;47.542;19.082;2023-06-22T00:53:23;100620.88;;;20.22;100.00
61014;BME280;46899;47.542;19.082;2023-06-22T00:56:25;100621.53;;;20.25;100.00
61014;BME280;46899;47.542;19.082;2023-06-22T00:59:28;100624.66;;;20.18;100.00
61014;BME280;46899;47.542;19.082;2023-06-22T01:02:31;100612.31;;;20.18;100.00
61014;BME280;46899;47.542;19.082;2023-06-22T01:05:34;100618.53;;;20.17;100.00
61014;BME280;46899;47.542;19.082;2023-06-22T01:08:49;100620.31;;;20.17;100.00
61014;BME280;46899;47.542;19.082;2023-06-22T01:11:57;100624.44;;;20.21;100.00
61014;BME280;46899;47.542;19.082;2023-06-22T01:15:14;100615.75;;;20.19;100.00
61014;BME280;46899;47.542;19.082;2023-06-22T01:18:18;100620.22;;;20.18;100.00
61014;BME280;46899;47.542;19.082;2023-06-22T01:21:21;100623.19;;;20.26;100.00
61014;BME280;46899;47.542;19.082;2023-06-22T01:25:10;100622.25;;;20.27;100.00
61014;BME280;46899;47.542;19.082;2023-06-22T01:28:01;100624.66;;;20.30;100.00
61014;BME280;46899;47.542;19.082;2023-06-22T01:31:05;100631.44;;;20.34;100.00
61014;BME280;46899;47.542;19.082;2023-06-22T01:34:09;100633.03;;;20.37;100.00
61014;BME280;46899;47.542;19.082;2023-06-22T01:37:12;100636.28;;;20.40;100.00
61014;BME280;46899;47.542;19.082;2023-06-22T01:40:15;100631.62;;;20.44;100.00
61014;BME280;46899;47.542;19.082;2023-06-22T01:43:19;100624.66;;;20.43;100.00
61014;BME280;46899;47.542;19.082;2023-06-22T01:46:25;100619.69;;;20.38;100.00
61014;BME280;46899;47.542;19.082;2023-06-22T01:49:28;100620.63;;;20.37;100.00
61014;BME280;46899;47.542;19.082;2023-06-22T01:52:31;100625.81;;;20.39;100.00
61014;BME280;46899;47.542;19.082;2023-06-22T01:55:36;100629.94;;;20.43;100.00
61014;BME280;46899;47.542;19.082;2023-06-22T01:58:41;100630.25;;;20.38;100.00
61014;BME280;46899;47.542;19.082;2023-06-22T02:01:50;100633.34;;;20.32;100.00
61014;BME280;46899;47.542;19.082;2023-06-22T02:05:02;100632.81;;;20.27;100.00
61014;BME280;46899;47.542;19.082;2023-06-22T02:11:09;100641.69;;;20.26;100.00
61014;BME280;46899;47.542;19.082;2023-06-22T02:14:12;100637.13;;;20.28;100.00
61014;BME280;46899;47.542;19.082;2023-06-22T02:17:16;100637.37;;;20.25;100.00
61014;BME280;46899;47.542;19.082;2023-06-22T02:20:18;100640.22;;;20.22;100.00
61014;BME280;46899;47.542;19.082;2023-06-22T02:23:22;100648.53;;;20.16;100.00
61014;BME280;46899;47.542;19.082;2023-06-22T02:26:25;100651.63;;;20.10;100.00
61014;BME280;46899;47.542;19.082;2023-06-22T02:29:29;100650.16;;;20.06;100.00
61014;BME280;46899;47.542;19.082;2023-06-22T02:32:32;100651.81;;;20.07;100.00
61014;BME280;46899;47.542;19.082;2023-06-22T02:35:36;100641.56;;;20.03;100.00
61014;BME280;46899;47.542;19.082;2023-06-22T02:38:42;100645.06;;;20.03;100.00
61014;BME280;46899;47.542;19.082;2023-06-22T02:41:50;100648.03;;;19.99;100.00
61014;BME280;46899;47.542;19.082;2023-06-22T02:44:53;100664.00;;;19.97;100.00
61014;BME280;46899;47.542;19.082;2023-06-22T02:47:55;100656.81;;;19.99;100.00
61014;BME280;46899;47.542;19.082;2023-06-22T02:50:58;100663.53;;;19.91;100.00
61014;BME280;46899;47.542;19.082;2023-06-22T02:54:01;100652.16;;;19.90;100.00
61014;BME280;46899;47.542;19.082;2023-06-22T02:57:04;100662.94;;;19.87;100.00
61014;BME280;46899;47.542;19.082;2023-06-22T03:00:07;100666.94;;;19.80;100.00
61014;BME280;46899;47.542;19.082;2023-06-22T03:03:19;100664.37;;;19.78;100.00
61014;BME280;46899;47.542;19.082;2023-06-22T03:06:22;100663.75;;;19.75;100.00
61014;BME280;46899;47.542;19.082;2023-06-22T03:09:26;100665.00;;;19.69;100.00
61014;BME280;46899;47.542;19.082;2023-06-22T03:12:30;100660.69;;;19.68;100.00
61014;BME280;46899;47.542;19.082;2023-06-22T03:15:32;100661.75;;;19.66;100.00
61014;BME280;46899;47.542;19.082;2023-06-22T03:18:35;100662.69;;;19.65;100.00
61014;BME280;46899;47.542;19.082;2023-06-22T03:21:38;100661.81;;;19.64;100.00
61014;BME280;46899;47.542;19.082;2023-06-22T03:24:40;100662.47;;;19.68;100.00
61014;BME280;46899;47.542;19.082;2023-06-22T03:27:43;100662.28;;;19.71;100.00
61014;BME280;46899;47.542;19.082;2023-06-22T03:30:46;100661.22;;;19.73;100.00
61014;BME280;46899;47.542;19.082;2023-06-22T03:33:49;100653.94;;;19.77;100.00
61014;BME280;46899;47.542;19.082;2023-06-22T03:36:51;100652.03;;;19.79;100.00
61014;BME280;46899;47.542;19.082;2023-06-22T03:39:54;100650.03;;;19.83;100.00
61014;BME280;46899;47.542;19.082;2023-06-22T03:42:56;100650.78;;;19.85;100.00
61014;BME280;46899;47.542;19.082;2023-06-22T03:45:59;100659.31;;;19.88;100.00
61014;BME280;46899;47.542;19.082;2023-06-22T03:49:02;100658.47;;;20.00;100.00
61014;BME280;46899;47.542;19.082;2023-06-22T03:52:07;100657.84;;;20.09;100.00
61014;BME280;46899;47.542;19.082;2023-06-22T03:55:09;100666.94;;;20.18;100.00
61014;BME280;46899;47.542;19.082;2023-06-22T03:58:12;100671.75;;;20.25;100.00
61014;BME280;46899;47.542;19.082;2023-06-22T04:01:14;100661.66;;;20.30;100.00
61014;BME280;46899;47.542;19.082;2023-06-22T04:04:19;100673.41;;;20.39;100.00
61014;BME280;46899;47.542;19.082;2023-06-22T04:07:22;100675.50;;;20.47;100.00
61014;BME280;46899;47.542;19.082;2023-06-22T04:10:24;100674.53;;;20.60;100.00
61014;BME280;46899;47.542;19.082;2023-06-22T04:13:27;100685.31;;;20.70;100.00
61014;BME280;46899;47.542;19.082;2023-06-22T04:16:29;100677.13;;;20.73;100.00
61014;BME280;46899;47.542;19.082;2023-06-22T04:19:32;100683.12;;;20.87;100.00
61014;BME280;46899;47.542;19.082;2023-06-22T04:22:34;100680.59;;;20.86;100.00
61014;BME280;46899;47.542;19.082;2023-06-22T04:25:37;100681.84;;;20.93;100.00
61014;BME280;46899;47.542;19.082;2023-06-22T04:28:40;100697.91;;;21.02;100.00
61014;BME280;46899;47.542;19.082;2023-06-22T04:31:42;100697.13;;;21.13;100.00
61014;BME280;46899;47.542;19.082;2023-06-22T04:34:45;100693.59;;;21.25;100.00
61014;BME280;46899;47.542;19.082;2023-06-22T04:37:47;100692.69;;;21.37;100.00
61014;BME280;46899;47.542;19.082;2023-06-22T04:40:52;100695.50;;;21.47;100.00
61014;BME280;46899;47.542;19.082;2023-06-22T04:43:55;100696.16;;;21.61;100.00
61014;BME280;46899;47.542;19.082;2023-06-22T04:47:02;100695.25;;;21.73;100.00
61014;BME280;46899;47.542;19.082;2023-06-22T04:50:06;100694.63;;;21.81;100.00
61014;BME280;46899;47.542;19.082;2023-06-22T04:53:09;100696.16;;;21.96;100.00
61014;BME280;46899;47.542;19.082;2023-06-22T04:56:14;100698.69;;;21.98;100.00
61014;BME280;46899;47.542;19.082;2023-06-22T04:59:20;100700.19;;;22.24;100.00
61014;BME280;46899;47.542;19.082;2023-06-22T05:02:22;100703.44;;;22.27;100.00
61014;BME280;46899;47.542;19.082;2023-06-22T05:05:35;100706.09;;;22.38;100.00
61014;BME280;46899;47.542;19.082;2023-06-22T05:08:37;100701.66;;;22.61;100.00
61014;BME280;46899;47.542;19.082;2023-06-22T05:11:40;100708.41;;;22.87;100.00
61014;BME280;46899;47.542;19.082;2023-06-22T05:14:42;100719.72;;;23.00;100.00
61014;BME280;46899;47.542;19.082;2023-06-22T05:17:45;100716.97;;;22.91;100.00
61014;BME280;46899;47.542;19.082;2023-06-22T05:20:47;100723.34;;;22.99;100.00
61014;BME280;46899;47.542;19.082;2023-06-22T05:23:50;100726.22;;;22.96;100.00
61014;BME280;46899;47.542;19.082;2023-06-22T05:26:53;100728.41;;;23.02;100.00
61014;BME280;46899;47.542;19.082;2023-06-22T05:29:55;100733.59;;;23.15;100.00
61014;BME280;46899;47.542;19.082;2023-06-22T05:32:58;100738.13;;;23.35;100.00
61014;BME280;46899;47.542;19.082;2023-06-22T05:36:00;100740.12;;;23.54;100.00
61014;BME280;46899;47.542;19.082;2023-06-22T05:39:10;100742.72;;;23.65;100.00
61014;BME280;46899;47.542;19.082;2023-06-22T05:42:14;100743.66;;;23.75;100.00
61014;BME280;46899;47.542;19.082;2023-06-22T05:45:17;100758.97;;;23.83;100.00
61014;BME280;46899;47.542;19.082;2023-06-22T05:48:22;100756.00;;;23.76;98.99
61014;BME280;46899;47.542;19.082;2023-06-22T05:51:24;100760.72;;;23.93;100.00
61014;BME280;46899;47.542;19.082;2023-06-22T05:54:27;100753.69;;;24.24;97.47
61014;BME280;46899;47.542;19.082;2023-06-22T05:57:30;100753.69;;;24.44;93.77
61014;BME280;46899;47.542;19.082;2023-06-22T06:00:35;100762.75;;;24.21;96.85
61014;BME280;46899;47.542;19.082;2023-06-22T06:03:38;100761.63;;;24.35;98.09
61014;BME280;46899;47.542;19.082;2023-06-22T06:06:43;100752.53;;;24.37;99.26
61014;BME280;46899;47.542;19.082;2023-06-22T06:09:46;100752.44;;;24.48;100.00
61014;BME280;46899;47.542;19.082;2023-06-22T06:12:50;100752.59;;;24.57;100.00
61014;BME280;46899;47.542;19.082;2023-06-22T06:15:52;100756.84;;;24.69;99.09
61014;BME280;46899;47.542;19.082;2023-06-22T06:18:57;100751.12;;;24.94;93.11
61014;BME280;46899;47.542;19.082;2023-06-22T06:22:00;100760.94;;;25.62;88.88
61014;BME280;46899;47.542;19.082;2023-06-22T06:25:03;100760.38;;;25.77;86.71
61014;BME280;46899;47.542;19.082;2023-06-22T06:28:07;100756.16;;;25.75;85.07
61014;BME280;46899;47.542;19.082;2023-06-22T06:31:09;100757.72;;;25.97;83.51
61014;BME280;46899;47.542;19.082;2023-06-22T06:34:12;100748.87;;;26.15;83.25
61014;BME280;46899;47.542;19.082;2023-06-22T06:37:14;100747.47;;;26.21;nan
61014;BME280;46899;47.542;19.082;2023-06-22T06:40:18;100745.84;;;26.47;75.77
61014;BME280;46899;47.542;19.082;2023-06-22T06:43:20;100760.09;;;26.75;72.89
61014;BME280;46899;47.542;19.082;2023-06-22T06:46:23;100756.06;;;26.98;68.42
61014;BME280;46899;47.542;19.082;2023-06-22T06:49:26;100750.59;;;27.62;69.24
61014;BME280;46899;47.542;19.082;2023-06-22T06:52:28;100752.88;;;29.45;64.78
61014;BME280;46899;47.542;19.082;2023-06-22T06:55:31;100763.34;;;33.73;47.38
61014;BME280;46899;47.542;19.082;2023-06-22T06:58:35;100757.41;;;37.31;38.65
61014;BME280;46899;47.542;19.082;2023-06-22T07:01:38;100764.16;;;37.91;35.37
61014;BME280;46899;47.542;19.082;2023-06-22T07:04:41;100751.81;;;37.57;34.38
61014;BME280;46899;47.542;19.082;2023-06-22T07:07:44;100754.72;;;37.62;34.11
61014;BME280;46899;47.542;19.082;2023-06-22T07:10:47;100753.16;;;40.09;29.38
61014;BME280;46899;47.542;19.082;2023-06-22T07:13:49;100748.38;;;42.20;29.04
61014;BME280;46899;47.542;19.082;2023-06-22T07:16:52;100744.91;;;43.54;26.46
61014;BME280;46899;47.542;19.082;2023-06-22T07:19:54;100747.38;;;44.19;24.12
61014;BME280;46899;47.542;19.082;2023-06-22T07:22:56;100743.38;;;44.89;25.39
61014;BME280;46899;47.542;19.082;2023-06-22T07:26:00;100748.34;;;44.87;24.75
61014;BME280;46899;47.542;19.082;2023-06-22T07:29:08;100742.66;;;44.57;24.20
61014;BME280;46899;47.542;19.082;2023-06-22T07:32:10;100739.34;;;43.76;25.34
61014;BME280;46899;47.542;19.082;2023-06-22T07:35:13;100737.84;;;43.37;24.84
61014;BME280;46899;47.542;19.082;2023-06-22T07:38:16;100739.97;;;43.57;25.21
61014;BME280;46899;47.542;19.082;2023-06-22T07:41:18;100737.69;;;42.78;24.19
61014;BME280;46899;47.542;19.082;2023-06-22T07:44:21;100740.47;;;43.80;25.80
61014;BME280;46899;47.542;19.082;2023-06-22T07:47:24;100736.97;;;44.78;21.38
61014;BME280;46899;47.542;19.082;2023-06-22T07:50:30;100740.66;;;44.05;22.91
61014;BME280;46899;47.542;19.082;2023-06-22T07:53:33;100734.09;;;43.43;26.34
61014;BME280;46899;47.542;19.082;2023-06-22T07:56:36;100729.53;;;43.27;23.75
61014;BME280;46899;47.542;19.082;2023-06-22T07:59:39;100725.13;;;42.77;26.54
61014;BME280;46899;47.542;19.082;2023-06-22T08:02:42;100723.88;;;42.47;24.03
61014;BME280;46899;47.542;19.082;2023-06-22T08:05:45;100714.09;;;43.21;24.42
61014;BME280;46899;47.542;19.082;2023-06-22T08:08:47;100718.16;;;45.17;22.87
61014;BME280;46899;47.542;19.082;2023-06-22T08:11:51;100719.31;;;45.57;21.27
61014;BME280;46899;47.542;19.082;2023-06-22T08:14:53;100714.94;;;45.86;21.48
61014;BME280;46899;47.542;19.082;2023-06-22T08:17:56;100717.12;;;46.14;22.29
61014;BME280;46899;47.542;19.082;2023-06-22T08:21:00;100704.91;;;46.50;20.11
61014;BME280;46899;47.542;19.082;2023-06-22T08:24:04;100709.62;;;46.50;18.84
61014;BME280;46899;47.542;19.082;2023-06-22T08:27:07;100703.12;;;44.58;21.50
61014;BME280;46899;47.542;19.082;2023-06-22T08:30:11;100704.81;;;44.74;22.68
61014;BME280;46899;47.542;19.082;2023-06-22T08:33:13;100709.44;;;45.96;21.29
61014;BME280;46899;47.542;19.082;2023-06-22T08:36:29;100701.56;;;46.58;21.28
61014;BME280;46899;47.542;19.082;2023-06-22T08:39:34;100702.63;;;46.78;19.87
61014;BME280;46899;47.542;19.082;2023-06-22T08:42:37;100693.28;;;46.63;20.51
61014;BME280;46899;47.542;19.082;2023-06-22T08:45:40;100696.22;;;45.78;20.37
61014;BME280;46899;47.542;19.082;2023-06-22T08:48:44;100693.06;;;43.58;21.13
61014;BME280;46899;47.542;19.082;2023-06-22T08:51:46;100687.78;;;41.62;23.42
61014;BME280;46899;47.542;19.082;2023-06-22T08:54:51;100693.75;;;45.31;20.90
61014;BME280;46899;47.542;19.082;2023-06-22T08:57:54;100686.78;;;46.29;20.03
61014;BME280;46899;47.542;19.082;2023-06-22T09:00:57;100677.00;;;45.63;20.59
61014;BME280;46899;47.542;19.082;2023-06-22T09:04:03;100671.88;;;44.79;21.50
61014;BME280;46899;47.542;19.082;2023-06-22T09:07:08;100678.63;;;45.84;19.89
61014;BME280;46899;47.542;19.082;2023-06-22T09:10:10;100668.16;;;45.96;21.42
61014;BME280;46899;47.542;19.082;2023-06-22T09:13:13;100667.44;;;46.54;20.98
61014;BME280;46899;47.542;19.082;2023-06-22T09:16:15;100665.25;;;46.46;19.93
61014;BME280;46899;47.542;19.082;2023-06-22T09:19:18;100662.09;;;45.23;21.93
61014;BME280;46899;47.542;19.082;2023-06-22T09:22:21;100653.41;;;44.59;21.25
61014;BME280;46899;47.542;19.082;2023-06-22T09:25:23;100655.53;;;44.42;21.51
61014;BME280;46899;47.542;19.082;2023-06-22T09:28:26;100654.37;;;44.28;22.19
61014;BME280;46899;47.542;19.082;2023-06-22T09:31:28;100646.59;;;43.36;24.24
61014;BME280;46899;47.542;19.082;2023-06-22T09:34:31;100634.88;;;41.23;26.35
61014;BME280;46899;47.542;19.082;2023-06-22T09:37:34;100642.38;;;39.85;29.17
61014;BME280;46899;47.542;19.082;2023-06-22T09:40:36;100625.88;;;38.38;31.71
61014;BME280;46899;47.542;19.082;2023-06-22T09:43:42;100617.22;;;37.61;32.00
61014;BME280;46899;47.542;19.082;2023-06-22T09:46:45;100623.69;;;37.60;33.63
61014;BME280;46899;47.542;19.082;2023-06-22T09:49:47;100620.69;;;37.19;31.78
61014;BME280;46899;47.542;19.082;2023-06-22T09:52:50;100621.66;;;36.49;32.57
61014;BME280;46899;47.542;19.082;2023-06-22T09:55:57;100624.31;;;35.72;35.55
61014;BME280;46899;47.542;19.082;2023-06-22T09:58:59;100612.63;;;35.91;34.74
61014;BME280;46899;47.542;19.082;2023-06-22T10:02:19;100615.94;;;36.13;35.54
61014;BME280;46899;47.542;19.082;2023-06-22T10:05:22;100607.63;;;35.82;34.71
61014;BME280;46899;47.542;19.082;2023-06-22T10:08:25;100617.88;;;35.60;35.59
61014;BME280;46899;47.542;19.082;2023-06-22T10:11:27;100624.06;;;35.41;35.91
61014;BME280;46899;47.542;19.082;2023-06-22T10:14:32;100614.53;;;35.64;35.60
61014;BME280;46899;47.542;19.082;2023-06-22T10:17:35;100616.41;;;35.77;35.23
61014;BME280;46899;47.542;19.082;2023-06-22T10:20:37;100619.94;;;35.64;35.41
61014;BME280;46899;47.542;19.082;2023-06-22T10:23:40;100620.13;;;35.37;36.06
61014;BME280;46899;47.542;19.082;2023-06-22T10:26:42;100615.56;;;35.57;35.18
61014;BME280;46899;47.542;19.082;2023-06-22T10:29:45;100608.88;;;35.20;37.74
61014;BME280;46899;47.542;19.082;2023-06-22T10:32:49;100605.59;;;35.51;36.75
61014;BME280;46899;47.542;19.082;2023-06-22T10:35:52;100602.63;;;35.39;36.12
61014;BME280;46899;47.542;19.082;2023-06-22T10:38:54;100597.63;;;35.23;36.77
61014;BME280;46899;47.542;19.082;2023-06-22T10:41:58;100608.91;;;35.53;37.27
61014;BME280;46899;47.542;19.082;2023-06-22T10:45:00;100600.16;;;35.44;35.21
61014;BME280;46899;47.542;19.082;2023-06-22T10:48:03;100600.16;;;35.51;35.40
61014;BME280;46899;47.542;19.082;2023-06-22T10:51:05;100598.88;;;35.66;35.71
61014;BME280;46899;47.542;19.082;2023-06-22T10:54:08;100590.56;;;35.48;34.67
61014;BME280;46899;47.542;19.082;2023-06-22T10:57:10;100585.59;;;35.52;37.04
61014;BME280;46899;47.542;19.082;2023-06-22T11:00:13;100588.66;;;35.10;36.76
61014;BME280;46899;47.542;19.082;2023-06-22T11:03:16;100589.94;;;35.40;37.09
61014;BME280;46899;47.542;19.082;2023-06-22T11:06:19;100589.72;;;35.48;35.59
61014;BME280;46899;47.542;19.082;2023-06-22T11:09:21;100591.62;;;35.54;34.48
61014;BME280;46899;47.542;19.082;2023-06-22T11:12:29;100590.56;;;35.42;38.25
61014;BME280;46899;47.542;19.082;2023-06-22T11:15:32;100583.66;;;35.26;35.14
61014;BME280;46899;47.542;19.082;2023-06-22T11:18:35;100575.03;;;34.70;36.11
61014;BME280;46899;47.542;19.082;2023-06-22T11:21:37;100580.34;;;35.24;36.49
61014;BME280;46899;47.542;19.082;2023-06-22T11:24:40;100569.09;;;35.47;36.02
61014;BME280;46899;47.542;19.082;2023-06-22T11:27:42;100577.03;;;35.68;35.19
61014;BME280;46899;47.542;19.082;2023-06-22T11:30:45;100568.41;;;36.10;35.68
61014;BME280;46899;47.542;19.082;2023-06-22T11:33:47;100560.13;;;35.79;34.46
61014;BME280;46899;47.542;19.082;2023-06-22T11:36:50;100564.91;;;35.77;36.05
61014;BME280;46899;47.542;19.082;2023-06-22T11:39:53;100570.97;;;35.46;36.54
61014;BME280;46899;47.542;19.082;2023-06-22T11:43:08;100561.84;;;35.54;35.81
61014;BME280;46899;47.542;19.082;2023-06-22T11:46:10;100561.41;;;35.57;36.39
61014;BME280;46899;47.542;19.082;2023-06-22T11:49:13;100555.56;;;35.34;35.50
61014;BME280;46899;47.542;19.082;2023-06-22T11:52:15;100548.72;;;35.38;36.02
61014;BME280;46899;47.542;19.082;2023-06-22T11:55:20;100558.28;;;35.14;36.88
61014;BME280;46899;47.542;19.082;2023-06-22T11:58:22;100551.34;;;34.85;38.34
61014;BME280;46899;47.542;19.082;2023-06-22T12:01:25;100556.34;;;34.88;38.21
61014;BME280;46899;47.542;19.082;2023-06-22T12:04:27;100549.31;;;35.27;37.95
61014;BME280;46899;47.542;19.082;2023-06-22T12:07:30;100550.56;;;35.37;36.97
61014;BME280;46899;47.542;19.082;2023-06-22T12:10:32;100544.72;;;35.34;35.63
61014;BME280;46899;47.542;19.082;2023-06-22T12:13:35;100544.94;;;35.65;36.49
61014;BME280;46899;47.542;19.082;2023-06-22T12:16:37;100540.78;;;35.30;36.18
61014;BME280;46899;47.542;19.082;2023-06-22T12:19:40;100541.41;;;35.12;36.66
61014;BME280;46899;47.542;19.082;2023-06-22T12:22:43;100525.37;;;34.97;35.86
61014;BME280;46899;47.542;19.082;2023-06-22T12:25:45;100518.09;;;35.11;38.08
61014;BME280;46899;47.542;19.082;2023-06-22T12:28:48;100519.13;;;34.90;37.99
61014;BME280;46899;47.542;19.082;2023-06-22T12:31:50;100515.03;;;34.47;38.13
61014;BME280;46899;47.542;19.082;2023-06-22T12:34:56;100508.53;;;34.22;38.59
61014;BME280;46899;47.542;19.082;2023-06-22T12:37:58;100506.81;;;34.81;36.12
61014;BME280;46899;47.542;19.082;2023-06-22T12:41:01;100509.09;;;34.84;38.69
61014;BME280;46899;47.542;19.082;2023-06-22T12:44:04;100514.72;;;34.89;37.75
61014;BME280;46899;47.542;19.082;2023-06-22T12:47:07;100507.63;;;34.88;37.53
61014;BME280;46899;47.542;19.082;2023-06-22T12:50:10;100504.34;;;34.99;38.17
61014;BME280;46899;47.542;19.082;2023-06-22T12:53:13;100497.28;;;35.12;35.87
61014;BME280;46899;47.542;19.082;2023-06-22T12:56:15;100498.13;;;35.05;38.50
61014;BME280;46899;47.542;19.082;2023-06-22T12:59:18;100495.56;;;34.84;38.47
61014;BME280;46899;47.542;19.082;2023-06-22T13:02:20;100497.47;;;34.97;38.48
61014;BME280;46899;47.542;19.082;2023-06-22T13:05:23;100502.03;;;34.83;38.71
61014;BME280;46899;47.542;19.082;2023-06-22T13:08:29;100499.22;;;34.44;41.13
61014;BME280;46899;47.542;19.082;2023-06-22T13:11:51;100495.69;;;34.37;39.79
61014;BME280;46899;47.542;19.082;2023-06-22T13:14:54;100484.09;;;34.56;38.98
61014;BME280;46899;47.542;19.082;2023-06-22T13:17:57;100478.94;;;34.94;38.81
61014;BME280;46899;47.542;19.082;2023-06-22T13:21:00;100476.88;;;35.16;39.91
61014;BME280;46899;47.542;19.082;2023-06-22T13:24:02;100469.19;;;35.06;40.81
61014;BME280;46899;47.542;19.082;2023-06-22T13:27:05;100471.44;;;34.89;39.63
61014;BME280;46899;47.542;19.082;2023-06-22T13:30:08;100466.88;;;34.83;38.84
61014;BME280;46899;47.542;19.082;2023-06-22T13:33:16;100460.81;;;34.62;39.86
61014;BME280;46899;47.542;19.082;2023-06-22T13:36:19;100467.72;;;34.04;39.93
61014;BME280;46899;47.542;19.082;2023-06-22T13:39:21;100468.19;;;34.20;41.13
61014;BME280;46899;47.542;19.082;2023-06-22T13:42:24;100465.13;;;34.43;38.87
61014;BME280;46899;47.542;19.082;2023-06-22T13:45:26;100468.16;;;34.14;40.03
61014;BME280;46899;47.542;19.082;2023-06-22T13:48:30;100456.41;;;34.41;40.26
61014;BME280;46899;47.542;19.082;2023-06-22T13:51:32;100454.66;;;34.14;39.59
61014;BME280;46899;47.542;19.082;2023-06-22T13:54:36;100453.41;;;34.03;40.61
61014;BME280;46899;47.542;19.082;2023-06-22T13:57:38;100459.59;;;34.04;40.91
61014;BME280;46899;47.542;19.082;2023-06-22T14:00:41;100451.56;;;34.17;41.13
61014;BME280;46899;47.542;19.082;2023-06-22T14:03:43;100445.56;;;34.28;40.12
61014;BME280;46899;47.542;19.082;2023-06-22T14:06:48;100437.22;;;33.75;40.80
61014;BME280;46899;47.542;19.082;2023-06-22T14:09:59;100446.25;;;33.89;41.69
61014;BME280;46899;47.542;19.082;2023-06-22T14:13:01;100440.87;;;33.96;39.01
61014;BME280;46899;47.542;19.082;2023-06-22T14:16:04;100436.72;;;34.00;41.83
61014;BME280;46899;47.542;19.082;2023-06-22T14:19:06;100441.25;;;33.93;41.13
61014;BME280;46899;47.542;19.082;2023-06-22T14:22:09;100434.50;;;33.69;40.27
61014;BME280;46899;47.542;19.082;2023-06-22T14:25:11;100425.41;;;33.42;40.71
61014;BME280;46899;47.542;19.082;2023-06-22T14:28:14;100420.13;;;33.55;43.72
61014;BME280;46899;47.542;19.082;2023-06-22T14:31:19;100432.41;;;33.64;42.10
61014;BME280;46899;47.542;19.082;2023-06-22T14:34:21;100426.03;;;33.79;44.95
61014;BME280;46899;47.542;19.082;2023-06-22T14:37:25;100418.19;;;33.49;39.75
61014;BME280;46899;47.542;19.082;2023-06-22T14:40:27;100409.13;;;33.57;40.64
61014;BME280;46899;47.542;19.082;2023-06-22T14:43:30;100405.94;;;33.47;39.68
61014;BME280;46899;47.542;19.082;2023-06-22T14:46:33;100405.56;;;33.16;42.46
61014;BME280;46899;47.542;19.082;2023-06-22T14:49:35;100405.19;;;33.25;41.54
61014;BME280;46899;47.542;19.082;2023-06-22T14:52:39;100401.00;;;33.16;43.50
61014;BME280;46899;47.542;19.082;2023-06-22T14:55:41;100410.16;;;33.28;41.79
61014;BME280;46899;47.542;19.082;2023-06-22T14:58:44;100403.13;;;33.27;42.84
61014;BME280;46899;47.542;19.082;2023-06-22T15:01:48;100393.69;;;33.10;43.83
61014;BME280;46899;47.542;19.082;2023-06-22T15:04:51;100405.44;;;33.02;42.02
61014;BME280;46899;47.542;19.082;2023-06-22T15:07:55;100394.59;;;32.96;44.78
61014;BME280;46899;47.542;19.082;2023-06-22T15:11:00;100392.69;;;32.90;43.59
61014;BME280;46899;47.542;19.082;2023-06-22T15:14:04;100377.53;;;32.89;43.36
61014;BME280;46899;47.542;19.082;2023-06-22T15:17:07;100383.28;;;33.07;43.47
61014;BME280;46899;47.542;19.082;2023-06-22T15:20:11;100376.50;;;32.90;45.53
61014;BME280;46899;47.542;19.082;2023-06-22T15:23:13;100370.88;;;32.85;44.32
61014;BME280;46899;47.542;19.082;2023-06-22T15:26:16;100372.22;;;32.74;42.96
61014;BME280;46899;47.542;19.082;2023-06-22T15:29:18;100364.59;;;32.78;44.40
61014;BME280;46899;47.542;19.082;2023-06-22T15:32:21;100378.47;;;32.75;45.84
61014;BME280;46899;47.542;19.082;2023-06-22T15:35:24;100369.94;;;32.71;42.93
61014;BME280;46899;47.542;19.082;2023-06-22T15:38:26;100366.66;;;32.76;45.65
61014;BME280;46899;47.542;19.082;2023-06-22T15:41:29;100370.53;;;32.67;45.03
61014;BME280;46899;47.542;19.082;2023-06-22T15:44:31;100374.88;;;32.68;45.88